Time;durP1;ratioP1;P1;durP2;ratioP2;P2;SDS_P1;SDS_P2;PMS_P1;PMS_P2;Temp;Humidity;BMP_temperature;BMP_pressure;BME280_temperature;BME280_humidity;BME280_pressure;Samples;Min_cycle;Max_cycle;Signal;HPM_P1;HPM_P2
2023/07/03 00:01:51;;;;;;;11.25;9.73;;;;;;;;;;5053911;28;20428;-88
2023/07/03 00:04:18;;;;;;;11.20;9.80;;;;;;;;;;5054089;28;20428;-87
2023/07/03 00:06:45;;;;;;;10.95;9.25;;;;;;;;;;5054047;28;20377;-88
2023/07/03 00:09:11;;;;;;;11.30;8.95;;;;;;;;;;5054136;28;20377;-87
2023/07/03 00:11:37;;;;;;;10.48;9.15;;;;;;;;;;5052697;28;20786;-87
2023/07/03 00:14:03;;;;;;;10.90;9.23;;;;;;;;;;5053891;28;20468;-87
2023/07/03 00:16:29;;;;;;;10.05;9.00;;;;;;;;;;5053954;28;20438;-87
2023/07/03 00:18:55;;;;;;;10.27;9.25;;;;;;;;;;5053941;28;20871;-88
2023/07/03 00:21:21;;;;;;;10.38;9.27;;;;;;;;;;5048030;28;20415;-88
2023/07/03 00:23:47;;;;;;;10.97;8.90;;;;;;;;;;5053540;28;20746;-88
2023/07/03 00:26:13;;;;;;;9.80;8.80;;;;;;;;;;5053767;28;20460;-87
2023/07/03 00:28:39;;;;;;;9.90;8.90;;;;;;;;;;5053632;28;20515;-87
2023/07/03 00:31:05;;;;;;;9.18;8.35;;;;;;;;;;5053454;28;20374;-87
2023/07/03 00:33:31;;;;;;;9.80;8.80;;;;;;;;;;5053577;28;20877;-87
2023/07/03 00:35:57;;;;;;;10.75;8.65;;;;;;;;;;5053413;28;20393;-88
2023/07/03 00:38:23;;;;;;;10.27;9.27;;;;;;;;;;5046811;28;20435;-88
2023/07/03 00:40:49;;;;;;;9.43;7.93;;;;;;;;;;5049240;28;20440;-87
2023/07/03 00:43:15;;;;;;;8.88;7.95;;;;;;;;;;5052007;28;20422;-87
2023/07/03 00:45:41;;;;;;;9.80;8.48;;;;;;;;;;5047624;28;20738;-87
2023/07/03 00:48:07;;;;;;;10.05;8.15;;;;;;;;;;5037845;28;20400;-87
2023/07/03 00:50:34;;;;;;;9.10;8.20;;;;;;;;;;5047802;28;20383;-88
2023/07/03 00:53:02;;;;;;;9.68;7.70;;;;;;;;;;5050601;28;20409;-87
2023/07/03 00:55:31;;;;;;;8.80;7.90;;;;;;;;;;5048735;28;20464;-88
2023/07/03 00:57:57;;;;;;;10.30;7.97;;;;;;;;;;5053067;28;20873;-87
2023/07/03 01:00:27;;;;;;;9.07;8.18;;;;;;;;;;5053053;28;20720;-88
2023/07/03 01:02:59;;;;;;;9.50;7.72;;;;;;;;;;5052925;28;20412;-87
2023/07/03 01:05:28;;;;;;;8.75;7.65;;;;;;;;;;5052766;28;20461;-87
2023/07/03 01:07:54;;;;;;;11.10;7.78;;;;;;;;;;5051568;28;20863;-88
2023/07/03 01:10:21;;;;;;;9.82;7.57;;;;;;;;;;5052986;28;20731;-88
2023/07/03 01:12:53;;;;;;;8.63;7.60;;;;;;;;;;5052927;28;20465;-88
2023/07/03 01:15:23;;;;;;;8.50;7.57;;;;;;;;;;5052754;28;20424;-87
2023/07/03 01:17:51;;;;;;;8.45;7.63;;;;;;;;;;5044109;28;20872;-87
2023/07/03 01:20:19;;;;;;;9.93;7.57;;;;;;;;;;5047563;28;20421;-87
2023/07/03 01:22:45;;;;;;;8.18;7.25;;;;;;;;;;5051573;28;20924;-87
2023/07/03 01:25:14;;;;;;;11.85;7.38;;;;;;;;;;5050042;28;20386;-87
2023/07/03 01:27:41;;;;;;;8.40;7.18;;;;;;;;;;5052584;28;20874;-89
2023/07/03 01:30:09;;;;;;;8.07;7.28;;;;;;;;;;5052500;28;20393;-88
2023/07/03 01:32:36;;;;;;;8.60;7.70;;;;;;;;;;5050674;28;20442;-88
2023/07/03 01:35:03;;;;;;;8.50;7.70;;;;;;;;;;5051637;28;20385;-88
2023/07/03 01:37:30;;;;;;;8.50;7.57;;;;;;;;;;5052217;28;20388;-88
2023/07/03 01:39:57;;;;;;;8.23;7.35;;;;;;;;;;5052311;28;20385;-88
2023/07/03 01:42:24;;;;;;;8.30;7.50;;;;;;;;;;5051901;28;20428;-88
2023/07/03 01:44:50;;;;;;;10.88;7.70;;;;;;;;;;5052264;28;20928;-87
2023/07/03 01:47:16;;;;;;;10.43;7.53;;;;;;;;;;5051230;28;20377;-88
2023/07/03 01:49:42;;;;;;;9.67;8.00;;;;;;;;;;5048257;28;20913;-87
2023/07/03 01:52:18;;;;;;;9.18;7.85;;;;;;;;;;5040925;28;20466;-88
2023/07/03 01:54:49;;;;;;;9.73;7.70;;;;;;;;;;5040212;28;20388;-88
2023/07/03 01:57:20;;;;;;;7.97;7.18;;;;;;;;;;5043834;28;20734;-88
2023/07/03 01:59:47;;;;;;;8.35;7.20;;;;;;;;;;5041808;28;20387;-88
2023/07/03 02:02:19;;;;;;;7.63;6.93;;;;;;;;;;5039343;28;20401;-88
2023/07/03 02:04:53;;;;;;;9.90;7.53;;;;;;;;;;5049004;28;20443;-88
2023/07/03 02:07:20;;;;;;;7.65;6.93;;;;;;;;;;5042960;28;20862;-88
2023/07/03 02:09:46;;;;;;;8.00;7.20;;;;;;;;;;5051006;28;20381;-88
2023/07/03 02:12:12;;;;;;;8.65;7.28;;;;;;;;;;5051795;28;20392;-88
2023/07/03 02:14:38;;;;;;;7.90;7.07;;;;;;;;;;5051886;28;20389;-88
2023/07/03 02:17:06;;;;;;;9.20;8.27;;;;;;;;;;5051002;28;20382;-88
2023/07/03 02:19:33;;;;;;;9.05;8.25;;;;;;;;;;5050529;28;20389;-87
2023/07/03 02:21:59;;;;;;;9.02;8.13;;;;;;;;;;5051776;28;20378;-87
2023/07/03 02:24:25;;;;;;;9.07;8.18;;;;;;;;;;5051846;28;20401;-89
2023/07/03 02:26:51;;;;;;;8.52;7.70;;;;;;;;;;5051726;28;20870;-88
2023/07/03 02:29:17;;;;;;;8.82;7.35;;;;;;;;;;5051920;28;20765;-88
2023/07/03 02:31:43;;;;;;;8.53;7.70;;;;;;;;;;5051670;28;20453;-88
2023/07/03 02:34:09;;;;;;;9.02;7.32;;;;;;;;;;5051678;28;20409;-88
2023/07/03 02:36:36;;;;;;;8.98;7.78;;;;;;;;;;5051735;28;20377;-89
2023/07/03 02:39:04;;;;;;;9.52;7.35;;;;;;;;;;5051768;28;20456;-88
2023/07/03 02:41:30;;;;;;;9.27;8.05;;;;;;;;;;5054429;28;20389;-88
2023/07/03 02:43:56;;;;;;;9.38;7.95;;;;;;;;;;5054468;28;20496;-89
2023/07/03 02:46:22;;;;;;;9.50;7.60;;;;;;;;;;5055541;28;20426;-89
2023/07/03 02:48:48;;;;;;;10.52;7.43;;;;;;;;;;5055528;28;20385;-87
2023/07/03 02:51:14;;;;;;;10.90;7.57;;;;;;;;;;5055424;28;20846;-87
2023/07/03 02:53:41;;;;;;;8.75;6.82;;;;;;;;;;5055509;28;20390;-88
2023/07/03 02:56:08;;;;;;;9.50;7.73;;;;;;;;;;5055334;28;20377;-87
2023/07/03 02:58:34;;;;;;;9.50;7.53;;;;;;;;;;5052606;28;20499;-87
2023/07/03 03:01:01;;;;;;;8.40;7.60;;;;;;;;;;5050313;28;20389;-87
2023/07/03 03:03:27;;;;;;;10.82;7.70;;;;;;;;;;5051843;28;20492;-88
2023/07/03 03:05:53;;;;;;;9.32;7.57;;;;;;;;;;5053943;28;20472;-88
2023/07/03 03:08:21;;;;;;;10.07;7.53;;;;;;;;;;5045502;28;20445;-88
2023/07/03 03:10:47;;;;;;;11.18;7.68;;;;;;;;;;5042054;28;20452;-88
2023/07/03 03:13:13;;;;;;;8.73;7.72;;;;;;;;;;5055091;28;20392;-88
2023/07/03 03:15:39;;;;;;;9.75;7.55;;;;;;;;;;5054982;28;20394;-87
2023/07/03 03:18:05;;;;;;;9.00;7.73;;;;;;;;;;5066077;28;20411;-86
2023/07/03 03:20:31;;;;;;;9.43;7.30;;;;;;;;;;5057888;28;20389;-87
2023/07/03 03:22:57;;;;;;;8.80;7.68;;;;;;;;;;5054842;28;20444;-87
2023/07/03 03:25:23;;;;;;;11.43;7.80;;;;;;;;;;5054478;28;20369;-87
2023/07/03 03:27:49;;;;;;;9.75;7.72;;;;;;;;;;5052154;28;20394;-88
2023/07/03 03:30:15;;;;;;;10.30;7.53;;;;;;;;;;5054687;28;20388;-87
2023/07/03 03:32:42;;;;;;;11.10;7.50;;;;;;;;;;5051692;28;20369;-87
2023/07/03 03:35:08;;;;;;;9.85;7.53;;;;;;;;;;5054750;28;20456;-87
2023/07/03 03:37:34;;;;;;;9.15;7.03;;;;;;;;;;5054551;28;20378;-88
2023/07/03 03:40:00;;;;;;;9.47;7.90;;;;;;;;;;5054987;28;20396;-87
2023/07/03 03:42:26;;;;;;;10.90;7.40;;;;;;;;;;5054098;28;20535;-86
2023/07/03 03:44:51;;;;;;;10.07;7.40;;;;;;;;;;5054506;28;20419;-87
2023/07/03 03:47:19;;;;;;;9.05;7.28;;;;;;;;;;5052936;28;20406;-89
2023/07/03 03:49:45;;;;;;;9.73;6.85;;;;;;;;;;5053384;28;20413;-88
2023/07/03 03:52:11;;;;;;;10.50;6.90;;;;;;;;;;5059900;28;20409;-88
2023/07/03 03:54:37;;;;;;;10.03;7.17;;;;;;;;;;5054430;28;20933;-86
2023/07/03 03:57:03;;;;;;;11.43;6.85;;;;;;;;;;5065003;28;20391;-88
2023/07/03 03:59:29;;;;;;;9.48;7.00;;;;;;;;;;5057061;28;20480;-87
2023/07/03 04:01:55;;;;;;;10.25;6.95;;;;;;;;;;5050869;28;20377;-87
2023/07/03 04:04:21;;;;;;;9.13;7.10;;;;;;;;;;5039869;28;20768;-87
2023/07/03 04:06:47;;;;;;;8.82;7.30;;;;;;;;;;5052558;28;20382;-86
2023/07/03 04:09:13;;;;;;;11.88;7.82;;;;;;;;;;5044999;28;20460;-86
2023/07/03 04:11:39;;;;;;;12.25;7.72;;;;;;;;;;5052027;28;20870;-87
2023/07/03 04:14:05;;;;;;;10.27;7.85;;;;;;;;;;5044195;28;20385;-88
2023/07/03 04:19:02;;;;;;;12.07;8.70;;;;;;;;;;5005978;28;20457;-78
2023/07/03 04:21:28;;;;;;;13.20;8.88;;;;;;;;;;5039846;28;20421;-78
2023/07/03 04:23:54;;;;;;;11.10;8.23;;;;;;;;;;5020987;28;20494;-78
2023/07/03 04:26:22;;;;;;;13.20;8.10;;;;;;;;;;5017635;28;20401;-78
2023/07/03 04:28:48;;;;;;;9.98;8.18;;;;;;;;;;5020215;28;20518;-78
2023/07/03 04:31:14;;;;;;;11.73;7.90;;;;;;;;;;5017836;28;20384;-78
2023/07/03 04:33:42;;;;;;;9.73;7.50;;;;;;;;;;5020846;28;20389;-78
2023/07/03 04:36:17;;;;;;;11.15;8.07;;;;;;;;;;5018139;28;20389;-77
2023/07/03 04:38:43;;;;;;;8.90;7.07;;;;;;;;;;5019839;28;20385;-78
2023/07/03 04:41:09;;;;;;;11.60;7.60;;;;;;;;;;5017064;28;20901;-78
2023/07/03 04:43:35;;;;;;;9.43;8.02;;;;;;;;;;5018027;28;20492;-80
2023/07/03 04:46:03;;;;;;;11.80;8.13;;;;;;;;;;5014686;28;20439;-78
2023/07/03 04:48:29;;;;;;;14.57;8.10;;;;;;;;;;5017486;28;20912;-80
2023/07/03 04:50:55;;;;;;;10.48;7.68;;;;;;;;;;5021507;28;20391;-80
2023/07/03 04:53:21;;;;;;;11.70;8.07;;;;;;;;;;5017533;28;20438;-80
2023/07/03 04:55:47;;;;;;;11.98;7.57;;;;;;;;;;5026512;28;20387;-80
2023/07/03 04:58:14;;;;;;;10.15;7.60;;;;;;;;;;5017935;28;20396;-80
2023/07/03 05:00:40;;;;;;;9.10;7.05;;;;;;;;;;5013468;28;20443;-79
2023/07/03 05:03:07;;;;;;;9.80;7.47;;;;;;;;;;5013238;28;20782;-79
2023/07/03 05:05:34;;;;;;;8.52;7.07;;;;;;;;;;5011986;28;20942;-79
2023/07/03 05:08:00;;;;;;;9.15;7.22;;;;;;;;;;5012073;28;20384;-80
2023/07/03 05:10:26;;;;;;;13.05;7.32;;;;;;;;;;5012648;28;20396;-81
2023/07/03 05:12:52;;;;;;;8.45;6.88;;;;;;;;;;5015864;28;20535;-80
2023/07/03 05:15:19;;;;;;;10.30;7.13;;;;;;;;;;5017856;28;20381;-80
2023/07/03 05:17:52;;;;;;;10.50;7.68;;;;;;;;;;5016350;28;20428;-81
2023/07/03 05:20:19;;;;;;;10.75;7.28;;;;;;;;;;5017460;28;20412;-81
2023/07/03 05:22:45;;;;;;;11.95;7.28;;;;;;;;;;5006444;28;20407;-81
2023/07/03 05:25:11;;;;;;;10.00;7.60;;;;;;;;;;5010705;28;20418;-81
2023/07/03 05:27:38;;;;;;;13.32;7.28;;;;;;;;;;5022111;28;20387;-79
2023/07/03 05:30:04;;;;;;;9.60;7.57;;;;;;;;;;5025502;28;20376;-79
2023/07/03 05:32:31;;;;;;;9.00;7.00;;;;;;;;;;5030137;28;20528;-79
2023/07/03 05:34:56;;;;;;;11.27;7.05;;;;;;;;;;5013479;28;20392;-79
2023/07/03 05:37:22;;;;;;;10.27;6.85;;;;;;;;;;5024379;28;20381;-79
2023/07/03 05:39:49;;;;;;;9.73;7.13;;;;;;;;;;5022339;28;20423;-81
2023/07/03 05:42:18;;;;;;;11.40;7.45;;;;;;;;;;5024966;28;20419;-79
2023/07/03 05:44:44;;;;;;;9.95;7.40;;;;;;;;;;5032593;28;20498;-81
2023/07/03 05:47:10;;;;;;;12.70;7.20;;;;;;;;;;5021681;28;20443;-80
2023/07/03 05:49:36;;;;;;;9.35;7.07;;;;;;;;;;5027902;28;20450;-81
2023/07/03 05:52:02;;;;;;;10.35;7.03;;;;;;;;;;5030379;28;20387;-81
2023/07/03 05:54:28;;;;;;;12.97;7.57;;;;;;;;;;5030745;28;20402;-81
2023/07/03 05:57:04;;;;;;;9.40;6.90;;;;;;;;;;5032207;28;20399;-81
2023/07/03 05:59:30;;;;;;;11.60;7.28;;;;;;;;;;5031885;28;20435;-81
2023/07/03 06:01:56;;;;;;;10.98;6.97;;;;;;;;;;5016877;28;21053;-81
2023/07/03 06:04:23;;;;;;;10.73;7.13;;;;;;;;;;5029690;28;20508;-80
2023/07/03 06:06:50;;;;;;;8.95;7.10;;;;;;;;;;5026971;28;20893;-80
2023/07/03 06:09:16;;;;;;;10.05;7.10;;;;;;;;;;5021397;28;20791;-82
2023/07/03 06:11:42;;;;;;;11.57;7.13;;;;;;;;;;5015922;28;20452;-81
2023/07/03 06:14:17;;;;;;;11.68;7.63;;;;;;;;;;5021541;28;20432;-81
2023/07/03 06:16:47;;;;;;;11.20;7.28;;;;;;;;;;5009065;28;20389;-80
2023/07/03 06:19:14;;;;;;;8.95;6.70;;;;;;;;;;5028804;28;20925;-82
2023/07/03 06:21:41;;;;;;;11.77;7.20;;;;;;;;;;5029049;28;20410;-83
2023/07/03 06:24:08;;;;;;;9.85;6.85;;;;;;;;;;5027379;28;20505;-81
2023/07/03 06:26:34;;;;;;;10.00;6.90;;;;;;;;;;5029628;28;20907;-80
2023/07/03 06:29:01;;;;;;;10.63;7.25;;;;;;;;;;5015959;28;20395;-80
2023/07/03 06:31:26;;;;;;;9.32;6.97;;;;;;;;;;5021821;28;20389;-80
2023/07/03 06:33:53;;;;;;;10.27;7.03;;;;;;;;;;5017665;28;20726;-80
2023/07/03 06:36:21;;;;;;;9.67;7.40;;;;;;;;;;5015076;28;20396;-80
2023/07/03 06:38:53;;;;;;;8.98;7.00;;;;;;;;;;5017631;28;20409;-80
2023/07/03 06:41:20;;;;;;;9.68;7.07;;;;;;;;;;5014914;28;20488;-80
2023/07/03 06:43:46;;;;;;;10.43;7.55;;;;;;;;;;5017222;28;20413;-80
2023/07/03 06:46:12;;;;;;;9.07;7.23;;;;;;;;;;5015418;28;20878;-81
2023/07/03 06:48:38;;;;;;;10.90;7.35;;;;;;;;;;5014929;28;20381;-80
2023/07/03 06:51:08;;;;;;;9.88;7.20;;;;;;;;;;5016770;28;20944;-80
2023/07/03 06:53:34;;;;;;;12.02;6.95;;;;;;;;;;5007976;28;20785;-81
2023/07/03 06:56:00;;;;;;;11.40;7.20;;;;;;;;;;5017512;28;20889;-80
2023/07/03 06:58:28;;;;;;;10.80;6.97;;;;;;;;;;5014671;28;20397;-80
2023/07/03 07:00:54;;;;;;;9.93;7.40;;;;;;;;;;5017467;28;20398;-80
2023/07/03 07:03:20;;;;;;;8.98;7.35;;;;;;;;;;5014883;28;20829;-81
2023/07/03 07:05:46;;;;;;;10.32;6.65;;;;;;;;;;5015833;28;20463;-80
2023/07/03 07:08:18;;;;;;;10.75;6.88;;;;;;;;;;5015928;28;20412;-80
2023/07/03 07:10:45;;;;;;;10.63;7.38;;;;;;;;;;5014935;28;20400;-80
2023/07/03 07:13:11;;;;;;;8.38;6.55;;;;;;;;;;5018155;28;20691;-80
2023/07/03 07:15:38;;;;;;;11.23;7.05;;;;;;;;;;4994782;28;20389;-80
2023/07/03 07:18:05;;;;;;;10.18;6.95;;;;;;;;;;5016452;28;20410;-81
2023/07/03 07:20:36;;;;;;;9.05;6.85;;;;;;;;;;5014510;28;20377;-80
2023/07/03 07:23:02;;;;;;;9.93;7.10;;;;;;;;;;5010314;28;20409;-81
2023/07/03 07:25:28;;;;;;;18.58;7.05;;;;;;;;;;5014433;28;20896;-81
2023/07/03 07:27:54;;;;;;;17.35;6.93;;;;;;;;;;5015768;28;20381;-81
2023/07/03 07:30:20;;;;;;;17.20;6.85;;;;;;;;;;5027231;28;20429;-81
2023/07/03 07:32:50;;;;;;;10.30;6.63;;;;;;;;;;5028136;28;20387;-80
2023/07/03 07:35:16;;;;;;;18.63;7.38;;;;;;;;;;5015148;28;20420;-80
2023/07/03 07:37:42;;;;;;;21.50;7.05;;;;;;;;;;5014624;28;20806;-81
2023/07/03 07:40:08;;;;;;;9.45;6.40;;;;;;;;;;5018270;28;20433;-80
2023/07/03 07:42:34;;;;;;;9.48;6.15;;;;;;;;;;5023118;28;20467;-80
2023/07/03 07:45:00;;;;;;;10.50;6.82;;;;;;;;;;5022131;28;20401;-79
2023/07/03 07:47:26;;;;;;;13.00;7.27;;;;;;;;;;5025110;28;20383;-80
2023/07/03 07:49:52;;;;;;;10.43;6.60;;;;;;;;;;5020974;28;20395;-79
2023/07/03 07:52:18;;;;;;;8.25;6.45;;;;;;;;;;5025681;28;20387;-79
2023/07/03 07:54:44;;;;;;;10.95;6.72;;;;;;;;;;5020814;28;20389;-80
2023/07/03 07:57:10;;;;;;;12.93;6.97;;;;;;;;;;5023921;28;20509;-80
2023/07/03 07:59:36;;;;;;;11.30;6.88;;;;;;;;;;5022546;28;20408;-80
2023/07/03 08:02:03;;;;;;;7.93;6.20;;;;;;;;;;5022145;28;20393;-79
2023/07/03 08:04:28;;;;;;;7.88;6.00;;;;;;;;;;5025083;28;20407;-79
2023/07/03 08:06:55;;;;;;;10.85;6.95;;;;;;;;;;5020832;28;20866;-80
2023/07/03 08:09:23;;;;;;;11.38;6.68;;;;;;;;;;5025373;28;20876;-80
2023/07/03 08:11:49;;;;;;;10.20;6.40;;;;;;;;;;5017576;28;20476;-80
2023/07/03 08:14:15;;;;;;;8.57;6.10;;;;;;;;;;5018464;28;20408;-81
2023/07/03 08:16:41;;;;;;;9.88;6.68;;;;;;;;;;5018436;28;20877;-82
2023/07/03 08:19:08;;;;;;;12.00;6.35;;;;;;;;;;5017375;28;20476;-82
2023/07/03 08:21:34;;;;;;;11.88;6.97;;;;;;;;;;5019832;28;20378;-82
2023/07/03 08:24:00;;;;;;;9.38;6.60;;;;;;;;;;5016928;28;20463;-82
2023/07/03 08:26:26;;;;;;;10.18;6.43;;;;;;;;;;5019425;28;20953;-81
2023/07/03 08:28:52;;;;;;;8.93;6.25;;;;;;;;;;5019424;28;20862;-81
2023/07/03 08:31:18;;;;;;;9.98;6.60;;;;;;;;;;5028011;28;20429;-83
2023/07/03 08:33:44;;;;;;;9.68;6.57;;;;;;;;;;5017421;28;20384;-81
2023/07/03 08:36:10;;;;;;;10.18;6.25;;;;;;;;;;5023548;28;20412;-82
2023/07/03 08:38:36;;;;;;;11.10;6.40;;;;;;;;;;5030425;28;20387;-81
2023/07/03 08:41:02;;;;;;;8.85;6.35;;;;;;;;;;5030083;28;20478;-81
2023/07/03 08:43:31;;;;;;;10.83;6.87;;;;;;;;;;5016733;28;20463;-81
2023/07/03 08:45:57;;;;;;;10.68;6.13;;;;;;;;;;5027789;28;20859;-80
2023/07/03 08:48:24;;;;;;;10.13;6.07;;;;;;;;;;5013843;28;20715;-80
2023/07/03 08:50:53;;;;;;;8.85;6.38;;;;;;;;;;5013660;28;20389;-81
2023/07/03 08:53:21;;;;;;;10.70;5.90;;;;;;;;;;5018755;28;20390;-80
2023/07/03 08:56:13;;;;;;;11.25;6.32;;;;;;;;;;5017674;28;20439;-81
2023/07/03 08:58:40;;;;;;;11.60;6.32;;;;;;;;;;5012802;28;20393;-82
2023/07/03 09:01:15;;;;;;;8.98;5.38;;;;;;;;;;5013314;28;20377;-81
2023/07/03 09:03:44;;;;;;;10.25;6.35;;;;;;;;;;5013331;28;20420;-81
2023/07/03 09:06:16;;;;;;;10.38;6.00;;;;;;;;;;5013319;28;20388;-81
2023/07/03 09:08:54;;;;;;;9.95;6.13;;;;;;;;;;5013320;28;20388;-81
2023/07/03 09:11:21;;;;;;;9.77;6.28;;;;;;;;;;5027007;28;20892;-81
2023/07/03 09:13:49;;;;;;;9.73;6.07;;;;;;;;;;5013193;28;20393;-80
2023/07/03 09:16:18;;;;;;;16.92;6.15;;;;;;;;;;5013241;28;20409;-80
2023/07/03 09:18:50;;;;;;;30.20;6.88;;;;;;;;;;5014023;28;20902;-84
2023/07/03 09:21:16;;;;;;;68.75;8.82;;;;;;;;;;5014341;28;20397;-82
2023/07/03 09:23:42;;;;;;;13.30;6.40;;;;;;;;;;5029991;28;20430;-81
2023/07/03 09:26:16;;;;;;;15.90;6.27;;;;;;;;;;5026679;28;20533;-81
2023/07/03 09:28:42;;;;;;;10.48;5.70;;;;;;;;;;5023886;28;20741;-81
2023/07/03 09:31:08;;;;;;;8.90;5.85;;;;;;;;;;5023653;28;20446;-81
2023/07/03 09:33:34;;;;;;;8.77;5.85;;;;;;;;;;5026011;28;20391;-81
2023/07/03 09:36:05;;;;;;;8.90;6.03;;;;;;;;;;5012498;28;20894;-81
2023/07/03 09:38:35;;;;;;;9.57;6.07;;;;;;;;;;5026523;28;20868;-83
2023/07/03 09:41:04;;;;;;;10.40;5.68;;;;;;;;;;5021025;28;20381;-82
2023/07/03 09:43:31;;;;;;;9.15;5.93;;;;;;;;;;5026640;28;20411;-83
2023/07/03 09:46:07;;;;;;;10.57;6.10;;;;;;;;;;5027712;28;20469;-82
2023/07/03 09:48:34;;;;;;;11.85;6.20;;;;;;;;;;5011141;28;20413;-82
2023/07/03 09:51:00;;;;;;;9.20;5.87;;;;;;;;;;5028677;28;20943;-81
2023/07/03 09:53:27;;;;;;;9.45;5.43;;;;;;;;;;5028923;28;20391;-81
2023/07/03 09:55:54;;;;;;;9.32;5.97;;;;;;;;;;5028072;28;20952;-81
2023/07/03 09:58:22;;;;;;;8.45;5.30;;;;;;;;;;5029533;28;20386;-82
2023/07/03 10:00:50;;;;;;;6.38;5.18;;;;;;;;;;5030050;28;20478;-82
2023/07/03 10:03:43;;;;;;;7.40;5.22;;;;;;;;;;5028024;28;20501;-81
2023/07/03 10:06:14;;;;;;;8.88;5.95;;;;;;;;;;5026927;28;20394;-82
2023/07/03 10:08:41;;;;;;;8.30;5.43;;;;;;;;;;5007651;28;20405;-81
2023/07/03 10:11:08;;;;;;;6.80;4.90;;;;;;;;;;5029043;28;20470;-81
2023/07/03 10:13:38;;;;;;;7.70;5.30;;;;;;;;;;5028633;28;20394;-82
2023/07/03 10:16:04;;;;;;;6.55;4.97;;;;;;;;;;5029962;28;20378;-82
2023/07/03 10:18:35;;;;;;;7.03;5.15;;;;;;;;;;5027489;28;20421;-82
2023/07/03 10:21:02;;;;;;;7.18;5.10;;;;;;;;;;5029963;28;20386;-83
2023/07/03 10:23:29;;;;;;;8.07;5.23;;;;;;;;;;5027819;28;20462;-81
2023/07/03 10:25:57;;;;;;;8.80;4.90;;;;;;;;;;5030243;28;20398;-83
2023/07/03 10:28:28;;;;;;;8.63;5.38;;;;;;;;;;5027435;28;20865;-82
2023/07/03 10:30:56;;;;;;;10.07;5.07;;;;;;;;;;5025869;28;20393;-82
2023/07/03 10:33:26;;;;;;;7.45;4.82;;;;;;;;;;5023921;28;20386;-82
2023/07/03 10:35:53;;;;;;;7.90;4.78;;;;;;;;;;5007404;28;20383;-82
2023/07/03 10:38:25;;;;;;;7.07;5.28;;;;;;;;;;5026034;28;20736;-82
2023/07/03 10:41:03;;;;;;;7.45;4.97;;;;;;;;;;5029173;28;20860;-82
2023/07/03 10:43:36;;;;;;;7.00;4.90;;;;;;;;;;5028242;28;20403;-82
2023/07/03 10:46:03;;;;;;;9.75;5.22;;;;;;;;;;5024211;28;20373;-83
2023/07/03 10:48:32;;;;;;;8.10;5.32;;;;;;;;;;5011987;28;20716;-83
2023/07/03 10:51:12;;;;;;;7.90;4.90;;;;;;;;;;5012205;28;20381;-83
2023/07/03 10:53:41;;;;;;;6.78;5.20;;;;;;;;;;5012031;28;20389;-82
2023/07/03 10:56:11;;;;;;;7.60;5.20;;;;;;;;;;5011730;28;20388;-82
2023/07/03 10:58:54;;;;;;;8.32;5.18;;;;;;;;;;5011118;28;20829;-83
2023/07/03 11:01:20;;;;;;;7.10;4.90;;;;;;;;;;5011866;28;20389;-82
2023/07/03 11:03:58;;;;;;;7.90;5.18;;;;;;;;;;5011877;28;20411;-83
2023/07/03 11:06:29;;;;;;;9.85;5.47;;;;;;;;;;5028580;28;20468;-83
2023/07/03 11:08:58;;;;;;;11.07;5.07;;;;;;;;;;5013358;28;20425;-82
2023/07/03 11:11:30;;;;;;;10.10;4.85;;;;;;;;;;5015476;28;20923;-82
2023/07/03 11:14:16;;;;;;;16.00;5.20;;;;;;;;;;5015742;28;20878;-82
2023/07/03 11:16:54;;;;;;;6.72;5.13;;;;;;;;;;5015461;28;20863;-82
2023/07/03 11:19:23;;;;;;;6.22;5.15;;;;;;;;;;5028026;28;20414;-82
2023/07/03 11:21:50;;;;;;;9.07;5.13;;;;;;;;;;5016269;28;20404;-81
2023/07/03 11:24:18;;;;;;;11.40;5.17;;;;;;;;;;5015331;28;20413;-82
2023/07/03 11:26:50;;;;;;;10.57;5.07;;;;;;;;;;5015063;28;20385;-82
2023/07/03 11:29:17;;;;;;;9.00;5.22;;;;;;;;;;5013493;28;20381;-83
2023/07/03 11:31:45;;;;;;;9.32;5.35;;;;;;;;;;5020709;28;20384;-82
2023/07/03 11:34:13;;;;;;;27.83;5.95;;;;;;;;;;5015252;28;20399;-82
2023/07/03 11:36:41;;;;;;;9.75;5.40;;;;;;;;;;5015022;28;20403;-82
2023/07/03 11:39:19;;;;;;;7.15;5.20;;;;;;;;;;5015129;28;20461;-82
2023/07/03 11:41:49;;;;;;;7.13;5.10;;;;;;;;;;5014862;28;20385;-82
2023/07/03 11:44:30;;;;;;;6.90;5.00;;;;;;;;;;5018501;28;20411;-82
2023/07/03 11:47:11;;;;;;;11.10;5.32;;;;;;;;;;5023011;28;20373;-83
2023/07/03 11:49:39;;;;;;;8.40;4.93;;;;;;;;;;5020431;28;20379;-80
2023/07/03 11:52:06;;;;;;;7.23;5.00;;;;;;;;;;5034727;28;20379;-82
2023/07/03 11:54:36;;;;;;;6.78;4.90;;;;;;;;;;5016298;28;20391;-82
2023/07/03 11:57:02;;;;;;;5.68;4.75;;;;;;;;;;5014761;28;20392;-83
2023/07/03 11:59:32;;;;;;;7.93;4.93;;;;;;;;;;5014595;28;20388;-82
2023/07/03 12:02:10;;;;;;;6.60;5.18;;;;;;;;;;5014554;28;20384;-82
2023/07/03 12:04:43;;;;;;;7.05;4.93;;;;;;;;;;5014000;28;20404;-82
2023/07/03 12:07:29;;;;;;;7.20;5.43;;;;;;;;;;5024398;28;20375;-81
2023/07/03 12:10:15;;;;;;;7.72;4.80;;;;;;;;;;5011611;28;20396;-82
2023/07/03 12:12:41;;;;;;;6.60;4.97;;;;;;;;;;5014284;28;20412;-83
2023/07/03 12:15:12;;;;;;;8.27;4.95;;;;;;;;;;5014647;28;20451;-83
2023/07/03 12:17:38;;;;;;;7.55;5.00;;;;;;;;;;5013290;28;20446;-84
2023/07/03 12:20:05;;;;;;;7.65;5.07;;;;;;;;;;5016740;28;20385;-84
2023/07/03 12:22:31;;;;;;;7.30;5.00;;;;;;;;;;5015604;28;20438;-83
2023/07/03 12:25:01;;;;;;;5.63;5.00;;;;;;;;;;5015348;28;20470;-83
2023/07/03 12:27:27;;;;;;;5.67;4.60;;;;;;;;;;5016339;28;20472;-83
2023/07/03 12:29:53;;;;;;;6.70;4.90;;;;;;;;;;5018571;28;20398;-82
2023/07/03 12:32:33;;;;;;;6.60;4.80;;;;;;;;;;5016213;28;20387;-84
2023/07/03 12:35:18;;;;;;;7.13;5.07;;;;;;;;;;5022585;28;20388;-83
2023/07/03 12:37:48;;;;;;;5.68;4.47;;;;;;;;;;5022753;28;20389;-83
2023/07/03 12:40:15;;;;;;;5.55;4.60;;;;;;;;;;5025981;28;20514;-82
2023/07/03 12:42:41;;;;;;;6.50;4.88;;;;;;;;;;5024896;28;20411;-82
2023/07/03 12:45:13;;;;;;;5.57;4.88;;;;;;;;;;5030208;28;20411;-83
2023/07/03 12:47:40;;;;;;;7.68;4.97;;;;;;;;;;5016056;28;20813;-84
2023/07/03 12:50:07;;;;;;;5.30;4.30;;;;;;;;;;5012634;28;20381;-83
2023/07/03 12:52:33;;;;;;;6.43;4.80;;;;;;;;;;5020491;28;20402;-82
2023/07/03 12:55:00;;;;;;;7.00;5.10;;;;;;;;;;5017356;28;20424;-81
2023/07/03 12:57:28;;;;;;;8.25;4.93;;;;;;;;;;5016881;28;20383;-84
2023/07/03 12:59:54;;;;;;;6.80;4.53;;;;;;;;;;5017321;28;20459;-85
2023/07/03 13:02:22;;;;;;;6.63;4.75;;;;;;;;;;5019406;28;20387;-83
2023/07/03 13:04:53;;;;;;;5.45;4.80;;;;;;;;;;5017120;28;20491;-83
2023/07/03 13:07:19;;;;;;;7.00;4.83;;;;;;;;;;5018452;28;20377;-83
2023/07/03 13:09:46;;;;;;;5.75;4.63;;;;;;;;;;5019488;28;20874;-83
2023/07/03 13:12:18;;;;;;;6.75;4.90;;;;;;;;;;5016497;28;20377;-84
2023/07/03 13:14:58;;;;;;;7.03;4.95;;;;;;;;;;5013880;28;20412;-84
2023/07/03 13:17:30;;;;;;;5.90;4.72;;;;;;;;;;5016450;28;20428;-83
2023/07/03 13:20:15;;;;;;;8.15;5.03;;;;;;;;;;5016835;28;20384;-84
2023/07/03 13:23:08;;;;;;;10.07;4.55;;;;;;;;;;5018498;28;20373;-82
2023/07/03 13:25:34;;;;;;;6.25;4.75;;;;;;;;;;5008053;28;20480;-83
2023/07/03 13:28:08;;;;;;;7.90;4.90;;;;;;;;;;5020095;28;20483;-82
2023/07/03 13:30:36;;;;;;;12.10;4.57;;;;;;;;;;5016681;28;20427;-83
2023/07/03 13:33:04;;;;;;;21.85;4.90;;;;;;;;;;5024304;28;20379;-84
2023/07/03 13:35:36;;;;;;;42.73;6.00;;;;;;;;;;5013064;28;20880;-89
2023/07/03 13:38:21;;;;;;;23.27;5.32;;;;;;;;;;5012317;28;20404;-88
2023/07/03 13:40:48;;;;;;;35.53;5.78;;;;;;;;;;5014810;28;20897;-84
2023/07/03 13:43:17;;;;;;;55.20;6.82;;;;;;;;;;5013554;28;20415;-85
2023/07/03 13:45:43;;;;;;;7.20;4.22;;;;;;;;;;5026113;28;20383;-85
2023/07/03 13:48:09;;;;;;;6.72;4.57;;;;;;;;;;5011546;28;20385;-84
2023/07/03 13:50:35;;;;;;;6.10;4.47;;;;;;;;;;5012752;28;20862;-84
2023/07/03 13:53:01;;;;;;;11.05;4.40;;;;;;;;;;5012572;28;20399;-84
2023/07/03 13:55:27;;;;;;;5.97;4.30;;;;;;;;;;5012584;28;20407;-83
2023/07/03 13:57:53;;;;;;;7.38;4.22;;;;;;;;;;5012409;28;20464;-84
2023/07/03 14:00:19;;;;;;;6.10;4.45;;;;;;;;;;5012718;28;20847;-84
2023/07/03 14:02:45;;;;;;;6.80;4.50;;;;;;;;;;5011137;28;20384;-84
2023/07/03 14:05:11;;;;;;;5.95;4.70;;;;;;;;;;5012329;28;20440;-84
2023/07/03 14:07:37;;;;;;;5.80;4.27;;;;;;;;;;5012232;28;20921;-84
2023/07/03 14:10:04;;;;;;;6.07;4.30;;;;;;;;;;5012805;28;20385;-83
2023/07/03 14:12:30;;;;;;;6.70;4.50;;;;;;;;;;5011333;28;20787;-83
2023/07/03 14:14:56;;;;;;;7.30;4.68;;;;;;;;;;5026158;28;20431;-84
2023/07/03 14:17:22;;;;;;;6.03;4.60;;;;;;;;;;5010878;28;20413;-84
2023/07/03 14:19:49;;;;;;;5.50;4.50;;;;;;;;;;5012225;28;20409;-84
2023/07/03 14:22:15;;;;;;;4.97;4.18;;;;;;;;;;5012508;28;20476;-84
2023/07/03 14:24:41;;;;;;;6.10;4.13;;;;;;;;;;5012070;28;20416;-84
2023/07/03 14:27:07;;;;;;;7.55;4.32;;;;;;;;;;5010844;28;20385;-85
2023/07/03 14:29:33;;;;;;;6.07;4.10;;;;;;;;;;5012108;28;20473;-83
2023/07/03 14:31:59;;;;;;;5.90;4.15;;;;;;;;;;5023738;28;20501;-83
2023/07/03 14:34:25;;;;;;;7.00;4.50;;;;;;;;;;5007380;28;20399;-82
2023/07/03 14:36:51;;;;;;;6.28;3.75;;;;;;;;;;5028910;28;20379;-82
2023/07/03 14:39:17;;;;;;;4.78;3.92;;;;;;;;;;5031987;28;20406;-82
2023/07/03 14:41:43;;;;;;;5.05;4.00;;;;;;;;;;5019403;28;20384;-82
2023/07/03 14:44:09;;;;;;;6.35;4.07;;;;;;;;;;5029861;28;20403;-82
2023/07/03 14:46:35;;;;;;;5.63;4.82;;;;;;;;;;5015889;28;20902;-82